createdAt,value
2019-05-19T00:01:06.716Z,14.17
2019-05-19T00:03:35.050Z,14.14
2019-05-19T00:06:03.290Z,14.11
2019-05-19T00:08:33.934Z,14.07
2019-05-19T00:11:01.893Z,14.05
2019-05-19T00:13:30.376Z,13.99
2019-05-19T00:15:58.586Z,13.98
2019-05-19T00:18:26.820Z,13.95
2019-05-19T00:20:55.067Z,13.93
2019-05-19T00:23:23.301Z,13.89
2019-05-19T00:25:51.515Z,13.88
2019-05-19T00:28:19.746Z,13.85
2019-05-19T00:30:47.978Z,13.82
2019-05-19T00:33:16.290Z,13.77
2019-05-19T00:35:44.506Z,13.73
2019-05-19T00:38:12.739Z,13.70
2019-05-19T00:40:40.980Z,13.66
2019-05-19T00:43:09.475Z,13.64
2019-05-19T00:45:37.676Z,13.60
2019-05-19T00:48:05.924Z,13.57
2019-05-19T00:50:34.163Z,13.51
2019-05-19T00:53:02.383Z,13.46
2019-05-19T00:55:30.599Z,13.40
2019-05-19T00:57:59.021Z,13.38
2019-05-19T01:00:27.239Z,13.35
2019-05-19T01:02:55.512Z,13.32
2019-05-19T01:05:23.728Z,13.30
2019-05-19T01:07:51.941Z,13.28
2019-05-19T01:10:21.899Z,13.27
2019-05-19T01:12:50.106Z,13.27
2019-05-19T01:15:18.340Z,13.26
2019-05-19T01:17:46.567Z,13.25
2019-05-19T01:20:15.440Z,13.20
2019-05-19T01:22:43.668Z,13.16
2019-05-19T01:25:11.907Z,13.16
2019-05-19T01:27:40.121Z,13.16
2019-05-19T01:30:10.084Z,13.19
2019-05-19T01:32:38.418Z,13.21
2019-05-19T01:35:06.622Z,13.25
2019-05-19T01:37:34.858Z,13.26
2019-05-19T01:40:04.001Z,13.29
2019-05-19T01:42:32.242Z,13.31
2019-05-19T01:45:00.476Z,13.34
2019-05-19T01:47:28.683Z,13.34
2019-05-19T01:50:16.500Z,13.34
2019-05-19T01:52:26.831Z,13.36
2019-05-19T01:54:55.096Z,12.33
2019-05-19T01:57:23.306Z,13.35
2019-05-19T01:59:51.558Z,13.33
2019-05-19T02:02:19.787Z,13.31
2019-05-19T02:04:48.061Z,13.32
2019-05-19T02:07:16.276Z,13.31
2019-05-19T02:09:44.485Z,13.28
2019-05-19T02:12:12.714Z,13.29
2019-05-19T02:14:40.920Z,13.31
2019-05-19T02:17:09.169Z,13.33
2019-05-19T02:19:37.405Z,13.32
2019-05-19T02:22:05.616Z,13.33
2019-05-19T02:24:33.849Z,13.35
2019-05-19T02:27:02.064Z,13.36
2019-05-19T02:29:30.280Z,13.38
2019-05-19T02:31:58.505Z,13.36
2019-05-19T02:34:26.711Z,13.32
2019-05-19T02:36:54.935Z,13.26
2019-05-19T02:39:23.226Z,13.20
2019-05-19T02:41:51.495Z,13.19
2019-05-19T02:44:20.101Z,13.18
2019-05-19T02:46:48.323Z,13.15
2019-05-19T02:49:16.607Z,13.11
2019-05-19T02:51:46.673Z,13.02
2019-05-19T02:54:15.076Z,13.01
2019-05-19T02:56:43.961Z,12.99
2019-05-19T02:59:12.644Z,12.95
2019-05-19T03:01:58.982Z,12.97
2019-05-19T03:04:27.208Z,12.97
2019-05-19T03:06:55.444Z,12.95
2019-05-19T03:09:23.681Z,12.92
2019-05-19T03:11:51.885Z,12.85
2019-05-19T03:14:20.183Z,12.83
2019-05-19T03:16:48.417Z,12.80
2019-05-19T03:19:16.654Z,12.72
2019-05-19T03:21:44.888Z,12.69
2019-05-19T03:24:13.121Z,12.72
2019-05-19T03:26:41.493Z,12.73
2019-05-19T03:29:11.465Z,12.75
2019-05-19T03:31:43.780Z,12.77
2019-05-19T03:34:13.176Z,12.76
2019-05-19T03:36:41.414Z,12.77
2019-05-19T03:39:09.628Z,12.80
2019-05-19T03:41:37.856Z,12.85
2019-05-19T03:44:06.106Z,12.83
2019-05-19T03:46:34.313Z,12.78
2019-05-19T03:49:02.548Z,12.78
2019-05-19T03:51:32.013Z,12.77
2019-05-19T03:54:00.372Z,12.77
2019-05-19T03:56:28.591Z,12.78
2019-05-19T03:58:56.849Z,12.76
2019-05-19T04:01:25.056Z,12.71
2019-05-19T04:03:53.274Z,12.70
2019-05-19T04:06:21.492Z,12.68
2019-05-19T04:08:49.707Z,12.68
2019-05-19T04:11:17.934Z,12.71
2019-05-19T04:13:46.187Z,12.72
2019-05-19T04:16:14.422Z,12.72
2019-05-19T04:18:42.653Z,12.73
2019-05-19T04:21:10.909Z,12.61
2019-05-19T04:23:39.207Z,12.61
2019-05-19T04:26:07.421Z,12.69
2019-05-19T04:28:35.665Z,12.73
2019-05-19T04:31:03.891Z,12.78
2019-05-19T04:33:32.130Z,12.77
2019-05-19T04:36:00.349Z,12.75
2019-05-19T04:38:28.580Z,12.76
2019-05-19T04:40:56.932Z,12.77
2019-05-19T04:43:25.146Z,12.77
2019-05-19T04:45:53.356Z,12.77
2019-05-19T04:48:21.597Z,12.75
2019-05-19T04:50:49.802Z,12.72
2019-05-19T04:53:18.015Z,12.70
2019-05-19T04:55:46.261Z,12.66
2019-05-19T04:58:14.473Z,12.71
2019-05-19T05:00:42.705Z,12.78
2019-05-19T05:03:10.940Z,12.75
2019-05-19T05:05:39.394Z,12.75
2019-05-19T05:08:07.626Z,12.70
2019-05-19T05:10:35.904Z,12.66
2019-05-19T05:13:04.136Z,12.63
2019-05-19T05:15:32.370Z,12.59
2019-05-19T05:18:00.704Z,12.61
2019-05-19T05:20:28.936Z,12.68
2019-05-19T05:22:57.170Z,12.75
2019-05-19T05:25:25.398Z,12.80
2019-05-19T05:27:53.641Z,12.84
2019-05-19T05:30:21.854Z,12.95
2019-05-19T05:32:50.077Z,12.99
2019-05-19T05:35:18.335Z,13.11
2019-05-19T05:37:46.641Z,13.12
2019-05-19T05:40:14.903Z,13.20
2019-05-19T05:42:43.125Z,13.25
2019-05-19T05:45:11.352Z,13.09
2019-05-19T05:47:39.762Z,13.32
2019-05-19T05:50:07.987Z,13.36
2019-05-19T05:52:38.960Z,13.36
2019-05-19T05:55:06.403Z,13.40
2019-05-19T05:57:34.702Z,13.40
2019-05-19T06:00:03.271Z,13.44
2019-05-19T06:02:31.491Z,13.47
2019-05-19T06:05:00.243Z,13.52
2019-05-19T06:07:28.468Z,13.62
2019-05-19T06:09:56.764Z,13.69
2019-05-19T06:12:25.012Z,13.82
2019-05-19T06:14:53.951Z,13.86
2019-05-19T06:17:22.163Z,13.85
2019-05-19T06:19:50.388Z,13.86
2019-05-19T06:22:18.611Z,13.90
2019-05-19T06:24:47.186Z,13.94
2019-05-19T06:27:15.417Z,13.99
2019-05-19T06:29:43.635Z,14.03
2019-05-19T06:32:16.632Z,14.14
2019-05-19T06:34:45.060Z,14.26
2019-05-19T06:37:13.414Z,14.38
2019-05-19T06:39:41.690Z,14.49
2019-05-19T06:42:10.681Z,14.54
2019-05-19T06:44:38.900Z,14.59
2019-05-19T06:47:07.142Z,14.68
2019-05-19T06:49:35.735Z,14.81
2019-05-19T06:52:03.996Z,14.98
2019-05-19T06:54:32.284Z,15.05
2019-05-19T06:57:00.525Z,15.16
2019-05-19T06:59:28.768Z,15.38
2019-05-19T07:01:56.965Z,15.60
2019-05-19T07:04:25.194Z,15.85
2019-05-19T07:06:53.572Z,16.05
2019-05-19T07:09:22.335Z,16.24
2019-05-19T07:11:50.735Z,16.44
2019-05-19T07:14:19.674Z,16.57
2019-05-19T07:16:47.890Z,15.69
2019-05-19T07:19:16.109Z,16.40
2019-05-19T07:21:44.314Z,16.33
2019-05-19T07:24:12.541Z,16.30
2019-05-19T07:26:40.780Z,16.18
2019-05-19T07:29:09.017Z,16.18
2019-05-19T07:31:37.236Z,16.32
2019-05-19T07:34:05.516Z,16.53
2019-05-19T07:36:33.686Z,16.63
2019-05-19T07:39:01.895Z,16.74
2019-05-19T07:41:30.123Z,16.89
2019-05-19T07:43:58.366Z,16.94
2019-05-19T07:46:26.607Z,16.99
2019-05-19T07:48:54.821Z,16.94
2019-05-19T07:51:23.038Z,16.89
2019-05-19T07:53:51.616Z,16.94
2019-05-19T07:56:19.901Z,17.08
2019-05-19T07:58:48.122Z,17.24
2019-05-19T08:01:16.469Z,17.49
2019-05-19T08:03:44.667Z,18.19
2019-05-19T08:06:12.917Z,18.19
2019-05-19T08:08:41.096Z,18.41
2019-05-19T08:11:09.315Z,18.70
2019-05-19T08:13:37.553Z,19.07
2019-05-19T08:16:05.841Z,19.30
2019-05-19T08:18:34.058Z,19.31
2019-05-19T08:21:02.279Z,19.31
2019-05-19T08:23:30.499Z,19.24
2019-05-19T08:25:58.743Z,19.20
2019-05-19T08:28:27.233Z,19.20
2019-05-19T08:30:55.455Z,19.36
2019-05-19T08:33:23.714Z,19.73
2019-05-19T08:35:51.941Z,20.08
2019-05-19T08:38:20.161Z,19.45
2019-05-19T08:40:48.424Z,20.36
2019-05-19T08:43:16.731Z,20.30
2019-05-19T08:45:45.004Z,20.28
2019-05-19T08:48:13.226Z,20.27
2019-05-19T08:50:41.437Z,20.39
2019-05-19T08:53:09.673Z,20.52
2019-05-19T08:55:37.903Z,20.52
2019-05-19T08:58:06.161Z,20.53
2019-05-19T09:00:38.295Z,20.50
2019-05-19T09:03:04.453Z,20.43
2019-05-19T09:05:34.032Z,20.30
2019-05-19T09:08:02.342Z,20.21
2019-05-19T09:10:30.578Z,20.12
2019-05-19T09:12:58.795Z,20.08
2019-05-19T09:15:27.437Z,19.94
2019-05-19T09:17:55.658Z,20.01
2019-05-19T09:20:23.881Z,20.08
2019-05-19T09:22:52.261Z,20.27
2019-05-19T09:25:20.494Z,20.41
2019-05-19T09:27:48.714Z,20.60
2019-05-19T09:30:17.251Z,20.88
2019-05-19T09:32:45.541Z,21.05
2019-05-19T09:35:13.919Z,21.19
2019-05-19T09:37:42.138Z,21.25
2019-05-19T09:40:10.366Z,21.28
2019-05-19T09:42:38.598Z,21.37
2019-05-19T09:45:09.958Z,21.40
2019-05-19T09:47:38.180Z,21.53
2019-05-19T09:50:06.412Z,21.47
2019-05-19T09:52:34.627Z,21.32
2019-05-19T09:55:02.871Z,21.22
2019-05-19T09:57:31.131Z,21.08
2019-05-19T09:59:59.345Z,21.07
2019-05-19T10:02:27.573Z,21.13
2019-05-19T10:04:55.787Z,21.32
2019-05-19T10:07:24.036Z,21.44
2019-05-19T10:09:59.861Z,21.63
2019-05-19T10:12:28.241Z,21.69
2019-05-19T10:14:56.466Z,21.94
2019-05-19T10:17:24.693Z,22.17
2019-05-19T10:19:52.939Z,22.41
2019-05-19T10:22:21.167Z,22.46
2019-05-19T10:25:04.162Z,22.32
2019-05-19T10:27:21.613Z,22.23
2019-05-19T10:29:49.340Z,22.31
2019-05-19T10:32:17.558Z,22.37
2019-05-19T10:34:45.802Z,22.39
2019-05-19T10:37:14.044Z,22.34
2019-05-19T10:39:42.271Z,22.35
2019-05-19T10:42:10.486Z,22.43
2019-05-19T10:44:38.707Z,22.44
2019-05-19T10:47:06.940Z,22.65
2019-05-19T10:49:35.179Z,22.68
2019-05-19T10:52:03.395Z,22.63
2019-05-19T10:54:32.228Z,22.62
2019-05-19T10:57:00.476Z,22.73
2019-05-19T10:59:28.672Z,22.79
2019-05-19T11:01:57.003Z,22.89
2019-05-19T11:04:25.612Z,23.09
2019-05-19T11:06:54.270Z,23.23
2019-05-19T11:09:22.580Z,23.41
2019-05-19T11:11:50.781Z,23.59
2019-05-19T11:14:19.898Z,23.67
2019-05-19T11:16:48.133Z,23.67
2019-05-19T11:19:16.403Z,23.67
2019-05-19T11:21:44.907Z,23.67
2019-05-19T11:24:13.625Z,23.67
2019-05-19T11:26:42.548Z,23.66
2019-05-19T11:29:10.752Z,23.67
2019-05-19T11:31:39.028Z,23.68
2019-05-19T11:34:07.239Z,23.66
2019-05-19T11:36:35.614Z,23.67
2019-05-19T11:39:05.242Z,23.76
2019-05-19T11:41:34.905Z,23.71
2019-05-19T11:44:03.207Z,23.71
2019-05-19T11:46:31.778Z,23.80
2019-05-19T11:49:00.349Z,23.93
2019-05-19T11:51:29.605Z,24.01
2019-05-19T11:53:58.179Z,24.07
2019-05-19T11:56:26.573Z,24.11
2019-05-19T11:58:54.805Z,24.12
2019-05-19T12:01:24.030Z,24.12
2019-05-19T12:03:55.357Z,23.37
2019-05-19T12:06:36.135Z,24.25
2019-05-19T12:08:52.598Z,24.36
2019-05-19T12:11:20.832Z,24.39
2019-05-19T12:13:49.053Z,24.45
2019-05-19T12:16:17.311Z,24.53
2019-05-19T12:18:45.552Z,24.51
2019-05-19T12:21:13.758Z,24.55
2019-05-19T12:23:42.021Z,24.58
2019-05-19T12:26:22.593Z,24.65
2019-05-19T12:28:40.270Z,24.71
2019-05-19T12:31:08.489Z,24.67
2019-05-19T12:33:49.636Z,24.67
2019-05-19T12:36:06.736Z,24.75
2019-05-19T12:38:35.653Z,24.75
2019-05-19T12:41:03.884Z,24.72
2019-05-19T12:43:32.126Z,24.55
2019-05-19T12:46:00.355Z,24.43
2019-05-19T12:48:28.660Z,24.30
2019-05-19T12:50:56.890Z,24.22
2019-05-19T12:53:25.129Z,23.55
2019-05-19T12:55:53.366Z,24.33
2019-05-19T12:58:21.832Z,24.44
2019-05-19T13:00:50.323Z,24.46
2019-05-19T13:03:18.566Z,24.37
2019-05-19T13:05:46.960Z,24.41
2019-05-19T13:08:15.180Z,24.53
2019-05-19T13:10:43.407Z,24.65
2019-05-19T13:13:12.134Z,23.87
2019-05-19T13:15:41.117Z,24.57
2019-05-19T13:18:09.337Z,24.56
2019-05-19T13:20:37.569Z,24.53
2019-05-19T13:23:05.811Z,24.48
2019-05-19T13:25:34.013Z,24.40
2019-05-19T13:28:02.232Z,24.36
2019-05-19T13:30:30.479Z,24.35
2019-05-19T13:32:58.727Z,24.35
2019-05-19T13:35:26.945Z,24.28
2019-05-19T13:37:55.943Z,24.15
2019-05-19T13:40:24.174Z,24.02
2019-05-19T13:42:52.372Z,23.98
2019-05-19T13:45:20.622Z,24.00
2019-05-19T13:47:48.837Z,24.07
2019-05-19T13:50:17.065Z,24.14
2019-05-19T13:52:45.310Z,24.23
2019-05-19T13:55:13.569Z,24.28
2019-05-19T13:57:42.206Z,24.25
2019-05-19T14:00:12.223Z,24.16
2019-05-19T14:02:40.474Z,24.05
2019-05-19T14:05:08.877Z,23.97
2019-05-19T14:07:37.411Z,23.95
2019-05-19T14:10:07.331Z,23.98
2019-05-19T14:12:35.945Z,24.04
2019-05-19T14:15:06.353Z,24.12
2019-05-19T14:17:34.640Z,24.13
2019-05-19T14:20:04.088Z,24.11
2019-05-19T14:22:34.112Z,24.12
2019-05-19T14:25:02.347Z,24.26
2019-05-19T14:27:31.110Z,24.28
2019-05-19T14:29:59.542Z,24.24
2019-05-19T14:32:28.770Z,24.22
2019-05-19T14:34:57.460Z,24.10
2019-05-19T14:37:26.213Z,23.96
2019-05-19T14:39:54.910Z,23.94
2019-05-19T14:42:41.163Z,23.90
2019-05-19T14:45:09.386Z,23.89
2019-05-19T14:47:37.608Z,23.87
2019-05-19T14:50:06.480Z,23.86
2019-05-19T14:52:35.097Z,23.89
2019-05-19T14:55:03.381Z,24.03
2019-05-19T14:57:43.833Z,24.11
2019-05-19T15:00:01.909Z,24.17
2019-05-19T15:02:30.131Z,24.17
2019-05-19T15:04:58.367Z,24.11
2019-05-19T15:07:26.736Z,24.16
2019-05-19T15:09:55.462Z,24.21
2019-05-19T15:12:23.691Z,24.22
2019-05-19T15:14:51.906Z,24.26
2019-05-19T15:17:20.413Z,24.22
2019-05-19T15:19:48.637Z,24.17
2019-05-19T15:22:17.449Z,24.06
2019-05-19T15:24:46.249Z,23.96
2019-05-19T15:27:14.802Z,23.84
2019-05-19T15:29:43.103Z,23.65
2019-05-19T15:32:11.338Z,23.57
2019-05-19T15:34:39.626Z,23.59
2019-05-19T15:37:08.242Z,23.61
2019-05-19T15:39:36.469Z,23.55
2019-05-19T15:42:05.036Z,23.44
2019-05-19T15:44:33.739Z,23.12
2019-05-19T15:47:02.010Z,22.81
2019-05-19T15:49:30.235Z,22.51
2019-05-19T15:52:03.162Z,22.30
2019-05-19T15:54:28.492Z,22.09
2019-05-19T15:56:56.834Z,21.91
2019-05-19T15:59:25.072Z,21.78
2019-05-19T16:01:53.309Z,21.60
2019-05-19T16:04:21.545Z,21.46
2019-05-19T16:06:49.819Z,21.41
2019-05-19T16:09:18.055Z,21.40
2019-05-19T16:11:46.369Z,21.43
2019-05-19T16:14:14.615Z,21.45
2019-05-19T16:16:44.473Z,21.42
2019-05-19T16:19:12.705Z,21.41
2019-05-19T16:21:40.955Z,21.48
2019-05-19T16:24:09.255Z,21.51
2019-05-19T16:26:37.569Z,21.49
2019-05-19T16:29:05.822Z,21.50
2019-05-19T16:31:34.218Z,21.53
2019-05-19T16:34:02.429Z,21.49
2019-05-19T16:36:30.658Z,21.43
2019-05-19T16:38:58.888Z,21.41
2019-05-19T16:41:27.106Z,21.45
2019-05-19T16:43:55.367Z,21.51
2019-05-19T16:46:23.573Z,21.54
2019-05-19T16:48:51.806Z,21.55
2019-05-19T16:51:20.125Z,21.59
2019-05-19T16:53:50.018Z,21.64
2019-05-19T16:56:18.218Z,21.70
2019-05-19T16:58:46.480Z,21.77
2019-05-19T17:01:14.770Z,21.89
2019-05-19T17:03:43.012Z,22.04
2019-05-19T17:06:11.230Z,22.09
2019-05-19T17:08:39.460Z,22.02
2019-05-19T17:11:18.106Z,21.94
2019-05-19T17:13:37.680Z,21.84
2019-05-19T17:16:05.910Z,21.77
2019-05-19T17:18:34.136Z,21.70
2019-05-19T17:21:02.351Z,21.66
2019-05-19T17:23:30.574Z,21.62
2019-05-19T17:25:58.786Z,21.56
2019-05-19T17:28:27.007Z,21.49
2019-05-19T17:30:57.755Z,21.45
2019-05-19T17:33:25.312Z,21.38
2019-05-19T17:35:53.590Z,21.25
2019-05-19T17:38:21.822Z,21.13
2019-05-19T17:40:50.067Z,21.02
2019-05-19T17:43:18.268Z,20.87
2019-05-19T17:45:46.503Z,20.75
2019-05-19T17:48:26.265Z,20.66
2019-05-19T17:50:44.688Z,20.61
2019-05-19T17:53:12.950Z,20.61
2019-05-19T17:55:41.168Z,20.59
2019-05-19T17:58:09.446Z,20.52
2019-05-19T18:00:41.474Z,20.44
2019-05-19T18:03:09.975Z,20.37
2019-05-19T18:05:38.213Z,20.28
2019-05-19T18:08:06.506Z,20.17
2019-05-19T18:10:34.890Z,20.05
2019-05-19T18:13:03.102Z,19.97
2019-05-19T18:15:31.333Z,19.85
2019-05-19T18:17:59.570Z,19.72
2019-05-19T18:20:27.793Z,19.60
2019-05-19T18:22:56.096Z,19.48
2019-05-19T18:25:24.354Z,19.35
2019-05-19T18:27:52.592Z,19.25
2019-05-19T18:30:20.878Z,19.15
2019-05-19T18:32:49.107Z,19.08
2019-05-19T18:35:17.311Z,19.02
2019-05-19T18:37:45.529Z,18.95
2019-05-19T18:40:14.336Z,18.86
2019-05-19T18:42:42.534Z,18.73
2019-05-19T18:45:10.769Z,18.60
2019-05-19T18:47:38.985Z,18.46
2019-05-19T18:50:07.805Z,18.36
2019-05-19T18:52:36.054Z,18.27
2019-05-19T18:55:08.317Z,18.20
2019-05-19T18:57:36.582Z,18.10
2019-05-19T19:00:05.898Z,17.98
2019-05-19T19:02:34.165Z,17.89
2019-05-19T19:05:02.439Z,17.79
2019-05-19T19:07:50.447Z,17.71
2019-05-19T19:10:18.677Z,17.62
2019-05-19T19:12:47.505Z,17.53
2019-05-19T19:15:15.744Z,17.49
2019-05-19T19:17:43.955Z,17.43
2019-05-19T19:20:12.188Z,17.37
2019-05-19T19:22:40.406Z,17.26
2019-05-19T19:25:08.699Z,17.18
2019-05-19T19:27:36.879Z,17.07
2019-05-19T19:30:08.957Z,16.97
2019-05-19T19:32:37.492Z,16.88
2019-05-19T19:35:06.659Z,16.79
2019-05-19T19:37:34.862Z,15.65
2019-05-19T19:40:04.211Z,16.65
2019-05-19T19:42:32.590Z,16.57
2019-05-19T19:45:00.977Z,16.49
2019-05-19T19:47:29.308Z,16.41
2019-05-19T19:49:59.153Z,16.33
2019-05-19T19:52:27.450Z,16.24
2019-05-19T19:54:55.677Z,16.16
2019-05-19T19:57:24.500Z,16.13
2019-05-19T19:59:52.663Z,16.09
2019-05-19T20:02:20.868Z,16.05
2019-05-19T20:04:49.109Z,16.00
2019-05-19T20:07:17.350Z,15.94
2019-05-19T20:09:45.683Z,15.89
2019-05-19T20:12:14.035Z,15.85
2019-05-19T20:14:42.235Z,15.80
2019-05-19T20:17:10.450Z,15.76
2019-05-19T20:19:38.754Z,15.70
2019-05-19T20:22:06.985Z,15.68
2019-05-19T20:24:35.181Z,15.64
2019-05-19T20:27:03.423Z,15.59
2019-05-19T20:29:31.636Z,15.56
2019-05-19T20:31:59.857Z,15.54
2019-05-19T20:34:28.082Z,15.51
2019-05-19T20:36:56.318Z,15.48
2019-05-19T20:39:24.537Z,15.46
2019-05-19T20:41:52.806Z,15.22
2019-05-19T20:44:21.035Z,15.40
2019-05-19T20:46:49.277Z,15.37
2019-05-19T20:49:17.559Z,15.35
2019-05-19T20:51:45.803Z,15.32
2019-05-19T20:54:14.530Z,15.32
2019-05-19T20:56:42.729Z,15.30
2019-05-19T20:59:10.945Z,15.30
2019-05-19T21:01:39.148Z,15.30
2019-05-19T21:04:07.375Z,15.29
2019-05-19T21:06:35.657Z,15.27
2019-05-19T21:09:04.903Z,15.25
2019-05-19T21:11:33.120Z,15.21
2019-05-19T21:14:01.363Z,15.19
2019-05-19T21:16:29.569Z,15.16
2019-05-19T21:18:57.818Z,15.13
2019-05-19T21:21:26.047Z,15.11
2019-05-19T21:23:54.286Z,15.07
2019-05-19T21:26:22.602Z,15.03
2019-05-19T21:28:50.815Z,14.98
2019-05-19T21:31:19.264Z,14.27
2019-05-19T21:33:47.488Z,14.91
2019-05-19T21:36:15.731Z,14.89
2019-05-19T21:38:43.960Z,14.87
2019-05-19T21:41:12.191Z,14.84
2019-05-19T21:43:40.415Z,14.81
2019-05-19T21:46:08.643Z,14.79
2019-05-19T21:48:36.853Z,14.76
2019-05-19T21:51:05.074Z,14.74
2019-05-19T21:53:33.300Z,14.72
2019-05-19T21:56:01.569Z,14.71
2019-05-19T21:58:29.837Z,14.70
2019-05-19T22:00:59.886Z,14.67
2019-05-19T22:03:28.089Z,14.67
2019-05-19T22:05:56.307Z,14.64
2019-05-19T22:08:24.546Z,14.62
2019-05-19T22:10:52.885Z,14.62
2019-05-19T22:13:21.084Z,14.60
2019-05-19T22:15:49.311Z,14.59
2019-05-19T22:18:17.535Z,14.59
2019-05-19T22:20:45.839Z,14.59
2019-05-19T22:23:14.064Z,14.56
2019-05-19T22:25:42.279Z,14.53
2019-05-19T22:28:10.580Z,14.51
2019-05-19T22:30:38.827Z,14.47
2019-05-19T22:33:07.093Z,14.43
2019-05-19T22:35:35.310Z,14.38
2019-05-19T22:38:03.526Z,14.35
2019-05-19T22:40:31.732Z,13.05
2019-05-19T22:42:59.968Z,14.30
2019-05-19T22:45:28.353Z,14.27
2019-05-19T22:47:56.565Z,14.26
2019-05-19T22:50:24.790Z,14.22
2019-05-19T22:52:53.005Z,14.20
2019-05-19T22:55:21.227Z,14.17
2019-05-19T22:57:49.487Z,14.15
2019-05-19T23:00:17.832Z,14.13
2019-05-19T23:02:46.057Z,14.10
2019-05-19T23:05:14.867Z,14.07
2019-05-19T23:07:43.098Z,14.03
2019-05-19T23:10:11.322Z,14.00
2019-05-19T23:12:39.551Z,13.96
2019-05-19T23:15:08.010Z,13.92
2019-05-19T23:17:36.260Z,13.87
2019-05-19T23:20:05.105Z,13.82
2019-05-19T23:22:33.691Z,13.76
2019-05-19T23:25:01.989Z,13.73
2019-05-19T23:27:30.218Z,13.70
2019-05-19T23:29:58.451Z,13.66
2019-05-19T23:32:26.679Z,13.63
2019-05-19T23:34:54.967Z,13.62
2019-05-19T23:37:23.194Z,13.62
2019-05-19T23:39:54.184Z,12.54
2019-05-19T23:42:21.462Z,13.62
2019-05-19T23:44:49.700Z,13.59
2019-05-19T23:47:17.917Z,13.59
2019-05-19T23:49:46.250Z,13.56
2019-05-19T23:52:14.495Z,13.57
2019-05-19T23:54:42.715Z,13.58
2019-05-19T23:57:10.937Z,13.60
2019-05-19T23:59:39.161Z,13.59
